Longford, Kansas
Current Conditions -  °F | °C
As of 3:53 PM on Wednesday 22 Oct 2014 (Local Time) from KSLN Reporting Station
Clear Clear  
Wind Chill: 76°   Ceiling: Unl
Heat Index: 76°   Visibility: 10mi
Dew Point: 52°   Wind: 21mph
Humidity: 43%   Direction: 190°S
Pressure: 30.02"   Gusts: 32mph
Location:  39.17°N, 97.33°W
Report Text: KSLN 222053Z 19018G28KT 10SM CLR 24/11 A3002 RMK AO2 PK WND 19030/2008 SLP157 60000 T02440111 55016
Loading
Personal Weather Stations






























Interactive Weather Map New forecast layout! Learn more

10-Day Weather Forecast

Advertisements
Track Severe Weather on mobile